sensor_id;sensor_type;location;lat;lon;timestamp;P1;durP1;ratioP1;P2;durP2;ratioP2
63008;SDS011;49099;28.428;-16.488;2022-12-31T00:01:25;13.98;;;3.42;;
63008;SDS011;49099;28.428;-16.488;2022-12-31T00:03:53;14.15;;;2.75;;
63008;SDS011;49099;28.428;-16.488;2022-12-31T00:06:22;15.05;;;3.15;;
63008;SDS011;49099;28.428;-16.488;2022-12-31T00:08:55;13.82;;;2.80;;
63008;SDS011;49099;28.428;-16.488;2022-12-31T00:11:24;12.20;;;2.47;;
63008;SDS011;49099;28.428;-16.488;2022-12-31T00:13:52;14.43;;;3.10;;
63008;SDS011;49099;28.428;-16.488;2022-12-31T00:16:21;14.77;;;3.03;;
63008;SDS011;49099;28.428;-16.488;2022-12-31T00:18:54;17.77;;;3.07;;
63008;SDS011;49099;28.428;-16.488;2022-12-31T00:21:25;16.48;;;3.15;;
63008;SDS011;49099;28.428;-16.488;2022-12-31T00:23:53;13.48;;;2.78;;
63008;SDS011;49099;28.428;-16.488;2022-12-31T00:26:22;12.05;;;2.65;;
63008;SDS011;49099;28.428;-16.488;2022-12-31T00:28:53;11.45;;;2.97;;
63008;SDS011;49099;28.428;-16.488;2022-12-31T00:31:22;15.95;;;3.30;;
63008;SDS011;49099;28.428;-16.488;2022-12-31T00:33:52;13.73;;;2.80;;
63008;SDS011;49099;28.428;-16.488;2022-12-31T00:36:23;15.38;;;3.15;;
63008;SDS011;49099;28.428;-16.488;2022-12-31T00:38:55;14.98;;;3.15;;
63008;SDS011;49099;28.428;-16.488;2022-12-31T00:41:25;14.45;;;2.75;;
63008;SDS011;49099;28.428;-16.488;2022-12-31T00:43:53;14.75;;;3.10;;
63008;SDS011;49099;28.428;-16.488;2022-12-31T00:46:20;12.98;;;2.95;;
63008;SDS011;49099;28.428;-16.488;2022-12-31T00:48:48;12.50;;;3.17;;
63008;SDS011;49099;28.428;-16.488;2022-12-31T00:51:16;16.73;;;3.20;;
63008;SDS011;49099;28.428;-16.488;2022-12-31T00:53:45;16.77;;;3.42;;
63008;SDS011;49099;28.428;-16.488;2022-12-31T00:56:14;15.13;;;3.10;;
63008;SDS011;49099;28.428;-16.488;2022-12-31T00:58:43;12.50;;;2.80;;
63008;SDS011;49099;28.428;-16.488;2022-12-31T01:01:15;14.05;;;3.10;;
63008;SDS011;49099;28.428;-16.488;2022-12-31T01:03:44;17.08;;;3.03;;
63008;SDS011;49099;28.428;-16.488;2022-12-31T01:06:13;10.65;;;2.75;;
63008;SDS011;49099;28.428;-16.488;2022-12-31T01:08:40;11.40;;;2.75;;
63008;SDS011;49099;28.428;-16.488;2022-12-31T01:11:08;14.73;;;3.17;;
63008;SDS011;49099;28.428;-16.488;2022-12-31T01:13:45;13.52;;;2.80;;
63008;SDS011;49099;28.428;-16.488;2022-12-31T01:16:24;13.35;;;3.05;;
63008;SDS011;49099;28.428;-16.488;2022-12-31T01:18:57;14.25;;;2.70;;
63008;SDS011;49099;28.428;-16.488;2022-12-31T01:21:25;14.25;;;2.92;;
63008;SDS011;49099;28.428;-16.488;2022-12-31T01:23:53;16.67;;;3.25;;
63008;SDS011;49099;28.428;-16.488;2022-12-31T01:26:21;16.38;;;2.97;;
63008;SDS011;49099;28.428;-16.488;2022-12-31T01:28:48;19.60;;;3.13;;
63008;SDS011;49099;28.428;-16.488;2022-12-31T01:31:16;19.05;;;3.75;;
63008;SDS011;49099;28.428;-16.488;2022-12-31T01:33:45;11.77;;;3.00;;
63008;SDS011;49099;28.428;-16.488;2022-12-31T01:36:16;18.70;;;3.45;;
63008;SDS011;49099;28.428;-16.488;2022-12-31T01:38:51;13.68;;;3.25;;
63008;SDS011;49099;28.428;-16.488;2022-12-31T01:41:20;14.13;;;2.85;;
63008;SDS011;49099;28.428;-16.488;2022-12-31T01:43:56;13.73;;;2.60;;
63008;SDS011;49099;28.428;-16.488;2022-12-31T01:46:38;15.85;;;3.22;;
63008;SDS011;49099;28.428;-16.488;2022-12-31T01:51:45;11.10;;;3.03;;
63008;SDS011;49099;28.428;-16.488;2022-12-31T01:54:15;11.10;;;2.85;;
63008;SDS011;49099;28.428;-16.488;2022-12-31T01:56:46;13.40;;;3.17;;
63008;SDS011;49099;28.428;-16.488;2022-12-31T01:59:15;16.25;;;3.22;;
63008;SDS011;49099;28.428;-16.488;2022-12-31T02:01:44;14.20;;;2.90;;
63008;SDS011;49099;28.428;-16.488;2022-12-31T02:04:13;16.20;;;3.10;;
63008;SDS011;49099;28.428;-16.488;2022-12-31T02:06:43;12.20;;;3.08;;
63008;SDS011;49099;28.428;-16.488;2022-12-31T02:09:16;15.20;;;3.20;;
63008;SDS011;49099;28.428;-16.488;2022-12-31T02:11:43;15.25;;;3.15;;
63008;SDS011;49099;28.428;-16.488;2022-12-31T02:14:11;12.80;;;3.20;;
63008;SDS011;49099;28.428;-16.488;2022-12-31T02:16:53;14.15;;;3.17;;
63008;SDS011;49099;28.428;-16.488;2022-12-31T02:25:10;15.80;;;3.28;;
63008;SDS011;49099;28.428;-16.488;2022-12-31T02:30:41;15.32;;;3.40;;
63008;SDS011;49099;28.428;-16.488;2022-12-31T02:33:34;17.80;;;3.72;;
63008;SDS011;49099;28.428;-16.488;2022-12-31T02:36:20;10.80;;;3.17;;
63008;SDS011;49099;28.428;-16.488;2022-12-31T02:38:56;14.77;;;4.28;;
63008;SDS011;49099;28.428;-16.488;2022-12-31T02:41:24;16.17;;;3.67;;
63008;SDS011;49099;28.428;-16.488;2022-12-31T02:47:02;19.48;;;4.45;;
63008;SDS011;49099;28.428;-16.488;2022-12-31T02:52:09;12.15;;;3.08;;
63008;SDS011;49099;28.428;-16.488;2022-12-31T02:57:33;10.90;;;4.35;;
63008;SDS011;49099;28.428;-16.488;2022-12-31T03:00:08;11.52;;;4.07;;
63008;SDS011;49099;28.428;-16.488;2022-12-31T03:02:57;10.90;;;3.42;;
63008;SDS011;49099;28.428;-16.488;2022-12-31T03:05:27;11.18;;;3.67;;
63008;SDS011;49099;28.428;-16.488;2022-12-31T03:07:56;10.63;;;3.55;;
63008;SDS011;49099;28.428;-16.488;2022-12-31T03:10:23;13.98;;;3.67;;
63008;SDS011;49099;28.428;-16.488;2022-12-31T03:12:50;12.13;;;3.05;;
63008;SDS011;49099;28.428;-16.488;2022-12-31T03:20:19;14.30;;;3.83;;
63008;SDS011;49099;28.428;-16.488;2022-12-31T03:23:07;13.02;;;3.45;;
63008;SDS011;49099;28.428;-16.488;2022-12-31T03:25:36;13.25;;;3.40;;
63008;SDS011;49099;28.428;-16.488;2022-12-31T03:28:16;14.18;;;2.90;;
63008;SDS011;49099;28.428;-16.488;2022-12-31T03:30:45;13.75;;;3.22;;
63008;SDS011;49099;28.428;-16.488;2022-12-31T03:33:14;15.95;;;2.80;;
63008;SDS011;49099;28.428;-16.488;2022-12-31T03:35:43;10.13;;;2.92;;
63008;SDS011;49099;28.428;-16.488;2022-12-31T03:38:12;11.25;;;2.67;;
63008;SDS011;49099;28.428;-16.488;2022-12-31T03:40:41;14.30;;;3.47;;
63008;SDS011;49099;28.428;-16.488;2022-12-31T03:43:11;11.38;;;3.03;;
63008;SDS011;49099;28.428;-16.488;2022-12-31T03:45:38;16.40;;;3.13;;
63008;SDS011;49099;28.428;-16.488;2022-12-31T03:48:06;12.85;;;3.30;;
63008;SDS011;49099;28.428;-16.488;2022-12-31T03:50:35;12.45;;;3.00;;
63008;SDS011;49099;28.428;-16.488;2022-12-31T03:53:02;13.90;;;3.05;;
63008;SDS011;49099;28.428;-16.488;2022-12-31T03:55:29;11.88;;;2.95;;
63008;SDS011;49099;28.428;-16.488;2022-12-31T03:57:57;10.10;;;2.80;;
63008;SDS011;49099;28.428;-16.488;2022-12-31T04:00:24;12.65;;;3.13;;
63008;SDS011;49099;28.428;-16.488;2022-12-31T04:02:51;13.38;;;2.83;;
63008;SDS011;49099;28.428;-16.488;2022-12-31T04:05:19;11.00;;;2.65;;
63008;SDS011;49099;28.428;-16.488;2022-12-31T04:07:46;10.45;;;3.05;;
63008;SDS011;49099;28.428;-16.488;2022-12-31T04:10:14;12.93;;;2.83;;
63008;SDS011;49099;28.428;-16.488;2022-12-31T04:12:44;12.45;;;2.75;;
63008;SDS011;49099;28.428;-16.488;2022-12-31T04:15:16;12.27;;;3.45;;
63008;SDS011;49099;28.428;-16.488;2022-12-31T04:17:45;12.93;;;3.08;;
63008;SDS011;49099;28.428;-16.488;2022-12-31T04:20:12;11.57;;;2.80;;
63008;SDS011;49099;28.428;-16.488;2022-12-31T04:22:40;17.20;;;3.30;;
63008;SDS011;49099;28.428;-16.488;2022-12-31T04:25:07;10.30;;;2.85;;
63008;SDS011;49099;28.428;-16.488;2022-12-31T04:27:39;6.63;;;2.33;;
63008;SDS011;49099;28.428;-16.488;2022-12-31T04:30:10;9.90;;;2.50;;
63008;SDS011;49099;28.428;-16.488;2022-12-31T04:32:38;10.60;;;2.60;;
63008;SDS011;49099;28.428;-16.488;2022-12-31T04:35:05;12.38;;;2.97;;
63008;SDS011;49099;28.428;-16.488;2022-12-31T04:37:33;8.70;;;2.28;;
63008;SDS011;49099;28.428;-16.488;2022-12-31T04:40:00;8.45;;;2.50;;
63008;SDS011;49099;28.428;-16.488;2022-12-31T04:42:34;9.98;;;2.17;;
63008;SDS011;49099;28.428;-16.488;2022-12-31T04:45:01;10.82;;;2.40;;
63008;SDS011;49099;28.428;-16.488;2022-12-31T04:47:29;7.53;;;2.47;;
63008;SDS011;49099;28.428;-16.488;2022-12-31T04:49:56;10.10;;;2.83;;
63008;SDS011;49099;28.428;-16.488;2022-12-31T04:52:23;8.80;;;2.60;;
63008;SDS011;49099;28.428;-16.488;2022-12-31T04:54:50;9.90;;;2.40;;
63008;SDS011;49099;28.428;-16.488;2022-12-31T04:57:17;10.95;;;3.13;;
63008;SDS011;49099;28.428;-16.488;2022-12-31T04:59:45;10.45;;;2.50;;
63008;SDS011;49099;28.428;-16.488;2022-12-31T05:02:12;14.18;;;3.00;;
63008;SDS011;49099;28.428;-16.488;2022-12-31T05:04:39;13.50;;;2.83;;
63008;SDS011;49099;28.428;-16.488;2022-12-31T05:07:06;12.13;;;2.85;;
63008;SDS011;49099;28.428;-16.488;2022-12-31T05:09:33;9.23;;;2.63;;
63008;SDS011;49099;28.428;-16.488;2022-12-31T05:12:00;14.00;;;3.38;;
63008;SDS011;49099;28.428;-16.488;2022-12-31T05:14:27;12.23;;;2.80;;
63008;SDS011;49099;28.428;-16.488;2022-12-31T05:16:54;10.55;;;2.70;;
63008;SDS011;49099;28.428;-16.488;2022-12-31T05:19:22;13.07;;;2.72;;
63008;SDS011;49099;28.428;-16.488;2022-12-31T05:21:49;15.25;;;3.25;;
63008;SDS011;49099;28.428;-16.488;2022-12-31T05:24:35;12.25;;;2.63;;
63008;SDS011;49099;28.428;-16.488;2022-12-31T05:27:02;12.80;;;2.58;;
63008;SDS011;49099;28.428;-16.488;2022-12-31T05:29:29;12.02;;;2.50;;
63008;SDS011;49099;28.428;-16.488;2022-12-31T05:31:56;11.48;;;2.85;;
63008;SDS011;49099;28.428;-16.488;2022-12-31T05:34:23;11.02;;;2.20;;
63008;SDS011;49099;28.428;-16.488;2022-12-31T05:36:51;11.52;;;2.58;;
63008;SDS011;49099;28.428;-16.488;2022-12-31T05:39:18;11.55;;;2.90;;
63008;SDS011;49099;28.428;-16.488;2022-12-31T05:41:45;15.43;;;2.97;;
63008;SDS011;49099;28.428;-16.488;2022-12-31T05:44:12;10.93;;;2.50;;
63008;SDS011;49099;28.428;-16.488;2022-12-31T05:46:40;12.75;;;2.90;;
63008;SDS011;49099;28.428;-16.488;2022-12-31T05:49:07;16.35;;;2.60;;
63008;SDS011;49099;28.428;-16.488;2022-12-31T05:51:34;10.95;;;2.60;;
63008;SDS011;49099;28.428;-16.488;2022-12-31T05:54:01;11.30;;;2.88;;
63008;SDS011;49099;28.428;-16.488;2022-12-31T05:56:28;10.50;;;2.90;;
63008;SDS011;49099;28.428;-16.488;2022-12-31T05:58:55;13.05;;;2.67;;
63008;SDS011;49099;28.428;-16.488;2022-12-31T06:01:22;12.13;;;2.90;;
63008;SDS011;49099;28.428;-16.488;2022-12-31T06:03:49;14.95;;;3.10;;
63008;SDS011;49099;28.428;-16.488;2022-12-31T06:06:17;14.38;;;2.97;;
63008;SDS011;49099;28.428;-16.488;2022-12-31T06:08:47;11.40;;;2.60;;
63008;SDS011;49099;28.428;-16.488;2022-12-31T06:11:15;11.93;;;2.33;;
63008;SDS011;49099;28.428;-16.488;2022-12-31T06:13:42;9.52;;;2.30;;
63008;SDS011;49099;28.428;-16.488;2022-12-31T06:16:09;11.10;;;2.78;;
63008;SDS011;49099;28.428;-16.488;2022-12-31T06:18:37;8.32;;;2.25;;
63008;SDS011;49099;28.428;-16.488;2022-12-31T06:21:05;14.27;;;2.70;;
63008;SDS011;49099;28.428;-16.488;2022-12-31T06:23:32;13.82;;;2.60;;
63008;SDS011;49099;28.428;-16.488;2022-12-31T06:26:02;9.27;;;2.53;;
63008;SDS011;49099;28.428;-16.488;2022-12-31T06:28:30;11.30;;;2.63;;
63008;SDS011;49099;28.428;-16.488;2022-12-31T06:31:01;11.02;;;2.50;;
63008;SDS011;49099;28.428;-16.488;2022-12-31T06:33:30;15.30;;;3.00;;
63008;SDS011;49099;28.428;-16.488;2022-12-31T06:35:58;9.82;;;2.53;;
63008;SDS011;49099;28.428;-16.488;2022-12-31T06:38:27;10.93;;;2.95;;
63008;SDS011;49099;28.428;-16.488;2022-12-31T06:40:56;11.50;;;3.00;;
63008;SDS011;49099;28.428;-16.488;2022-12-31T06:43:23;9.68;;;2.65;;
63008;SDS011;49099;28.428;-16.488;2022-12-31T06:45:50;8.75;;;2.53;;
63008;SDS011;49099;28.428;-16.488;2022-12-31T06:48:17;10.73;;;2.70;;
63008;SDS011;49099;28.428;-16.488;2022-12-31T06:50:44;10.85;;;2.63;;
63008;SDS011;49099;28.428;-16.488;2022-12-31T06:53:12;11.23;;;2.75;;
63008;SDS011;49099;28.428;-16.488;2022-12-31T06:55:39;16.25;;;2.63;;
63008;SDS011;49099;28.428;-16.488;2022-12-31T06:58:10;10.18;;;2.38;;
63008;SDS011;49099;28.428;-16.488;2022-12-31T07:00:43;10.60;;;2.45;;
63008;SDS011;49099;28.428;-16.488;2022-12-31T07:06:23;12.68;;;2.95;;
63008;SDS011;49099;28.428;-16.488;2022-12-31T07:14:36;7.75;;;2.10;;
63008;SDS011;49099;28.428;-16.488;2022-12-31T07:20:02;11.02;;;2.45;;
63008;SDS011;49099;28.428;-16.488;2022-12-31T07:22:37;13.18;;;2.60;;
63008;SDS011;49099;28.428;-16.488;2022-12-31T07:25:05;8.93;;;2.38;;
63008;SDS011;49099;28.428;-16.488;2022-12-31T07:30:20;15.07;;;2.38;;
63008;SDS011;49099;28.428;-16.488;2022-12-31T07:35:31;12.18;;;2.83;;
63008;SDS011;49099;28.428;-16.488;2022-12-31T07:38:10;15.60;;;3.03;;
63008;SDS011;49099;28.428;-16.488;2022-12-31T07:46:30;12.65;;;3.13;;
63008;SDS011;49099;28.428;-16.488;2022-12-31T07:49:10;13.35;;;2.83;;
63008;SDS011;49099;28.428;-16.488;2022-12-31T07:51:38;13.23;;;2.55;;
63008;SDS011;49099;28.428;-16.488;2022-12-31T07:54:06;13.60;;;2.97;;
63008;SDS011;49099;28.428;-16.488;2022-12-31T07:56:39;8.38;;;2.20;;
63008;SDS011;49099;28.428;-16.488;2022-12-31T07:59:13;11.75;;;3.05;;
63008;SDS011;49099;28.428;-16.488;2022-12-31T08:11:07;15.23;;;2.50;;
63008;SDS011;49099;28.428;-16.488;2022-12-31T08:13:57;14.82;;;2.78;;
63008;SDS011;49099;28.428;-16.488;2022-12-31T08:16:27;11.15;;;2.63;;
63008;SDS011;49099;28.428;-16.488;2022-12-31T08:18:55;10.07;;;2.50;;
63008;SDS011;49099;28.428;-16.488;2022-12-31T08:21:35;11.07;;;3.03;;
63008;SDS011;49099;28.428;-16.488;2022-12-31T08:26:56;9.43;;;2.13;;
63008;SDS011;49099;28.428;-16.488;2022-12-31T08:37:12;10.27;;;2.47;;
63008;SDS011;49099;28.428;-16.488;2022-12-31T08:40:04;10.88;;;2.58;;
63008;SDS011;49099;28.428;-16.488;2022-12-31T08:45:13;13.10;;;2.67;;
63008;SDS011;49099;28.428;-16.488;2022-12-31T08:50:25;7.07;;;2.20;;
63008;SDS011;49099;28.428;-16.488;2022-12-31T08:52:53;11.60;;;2.60;;
63008;SDS011;49099;28.428;-16.488;2022-12-31T08:55:21;13.48;;;2.78;;
63008;SDS011;49099;28.428;-16.488;2022-12-31T09:00:34;10.02;;;2.63;;
63008;SDS011;49099;28.428;-16.488;2022-12-31T09:06:07;10.75;;;2.53;;
63008;SDS011;49099;28.428;-16.488;2022-12-31T09:14:32;15.73;;;2.90;;
63008;SDS011;49099;28.428;-16.488;2022-12-31T09:17:06;13.98;;;2.78;;
63008;SDS011;49099;28.428;-16.488;2022-12-31T09:19:36;17.70;;;3.22;;
63008;SDS011;49099;28.428;-16.488;2022-12-31T09:22:03;12.02;;;2.67;;
63008;SDS011;49099;28.428;-16.488;2022-12-31T09:24:31;17.38;;;2.88;;
63008;SDS011;49099;28.428;-16.488;2022-12-31T09:27:12;9.70;;;2.50;;
63008;SDS011;49099;28.428;-16.488;2022-12-31T09:38:22;13.60;;;2.92;;
63008;SDS011;49099;28.428;-16.488;2022-12-31T09:44:14;19.00;;;2.85;;
63008;SDS011;49099;28.428;-16.488;2022-12-31T09:55:21;15.23;;;3.38;;
63008;SDS011;49099;28.428;-16.488;2022-12-31T09:57:57;18.10;;;3.03;;
63008;SDS011;49099;28.428;-16.488;2022-12-31T10:00:51;12.55;;;3.08;;
63008;SDS011;49099;28.428;-16.488;2022-12-31T10:06:31;15.68;;;2.70;;
63008;SDS011;49099;28.428;-16.488;2022-12-31T10:17:51;12.60;;;2.97;;
63008;SDS011;49099;28.428;-16.488;2022-12-31T10:20:29;17.42;;;2.85;;
63008;SDS011;49099;28.428;-16.488;2022-12-31T10:25:57;12.35;;;2.70;;
63008;SDS011;49099;28.428;-16.488;2022-12-31T10:39:45;10.20;;;2.35;;
63008;SDS011;49099;28.428;-16.488;2022-12-31T10:42:59;10.20;;;2.42;;
63008;SDS011;49099;28.428;-16.488;2022-12-31T10:46:22;12.68;;;2.47;;
63008;SDS011;49099;28.428;-16.488;2022-12-31T11:00:17;14.68;;;2.50;;
63008;SDS011;49099;28.428;-16.488;2022-12-31T11:12:14;12.05;;;2.30;;
63008;SDS011;49099;28.428;-16.488;2022-12-31T11:17:29;12.33;;;2.90;;
63008;SDS011;49099;28.428;-16.488;2022-12-31T11:20:14;9.25;;;2.78;;
63008;SDS011;49099;28.428;-16.488;2022-12-31T11:23:00;10.00;;;2.50;;
63008;SDS011;49099;28.428;-16.488;2022-12-31T11:36:32;10.23;;;2.67;;
63008;SDS011;49099;28.428;-16.488;2022-12-31T11:47:46;9.25;;;1.90;;
63008;SDS011;49099;28.428;-16.488;2022-12-31T11:56:17;9.80;;;2.30;;
63008;SDS011;49099;28.428;-16.488;2022-12-31T11:58:52;11.48;;;3.05;;
63008;SDS011;49099;28.428;-16.488;2022-12-31T12:01:23;12.50;;;2.42;;
63008;SDS011;49099;28.428;-16.488;2022-12-31T12:03:50;15.00;;;2.65;;
63008;SDS011;49099;28.428;-16.488;2022-12-31T12:06:19;12.65;;;2.30;;
63008;SDS011;49099;28.428;-16.488;2022-12-31T12:08:57;12.05;;;2.70;;
63008;SDS011;49099;28.428;-16.488;2022-12-31T12:11:28;15.05;;;2.70;;
63008;SDS011;49099;28.428;-16.488;2022-12-31T12:13:57;13.68;;;2.60;;
63008;SDS011;49099;28.428;-16.488;2022-12-31T12:16:25;16.48;;;2.55;;
63008;SDS011;49099;28.428;-16.488;2022-12-31T12:19:01;18.05;;;2.30;;
63008;SDS011;49099;28.428;-16.488;2022-12-31T12:21:30;14.50;;;2.70;;
63008;SDS011;49099;28.428;-16.488;2022-12-31T12:26:56;13.93;;;2.53;;
63008;SDS011;49099;28.428;-16.488;2022-12-31T12:29:33;11.05;;;2.40;;
63008;SDS011;49099;28.428;-16.488;2022-12-31T12:32:34;12.77;;;2.70;;
63008;SDS011;49099;28.428;-16.488;2022-12-31T12:34:54;15.18;;;2.45;;
63008;SDS011;49099;28.428;-16.488;2022-12-31T12:39:56;16.65;;;2.85;;
63008;SDS011;49099;28.428;-16.488;2022-12-31T12:42:27;14.30;;;2.33;;
63008;SDS011;49099;28.428;-16.488;2022-12-31T12:45:14;16.02;;;2.65;;
63008;SDS011;49099;28.428;-16.488;2022-12-31T12:47:44;15.65;;;2.63;;
63008;SDS011;49099;28.428;-16.488;2022-12-31T12:50:17;16.08;;;3.05;;
63008;SDS011;49099;28.428;-16.488;2022-12-31T13:00:55;18.75;;;3.22;;
63008;SDS011;49099;28.428;-16.488;2022-12-31T13:03:42;14.77;;;3.00;;
63008;SDS011;49099;28.428;-16.488;2022-12-31T13:12:26;11.68;;;2.33;;
63008;SDS011;49099;28.428;-16.488;2022-12-31T13:15:38;17.50;;;2.72;;
63008;SDS011;49099;28.428;-16.488;2022-12-31T13:18:21;14.75;;;2.72;;
63008;SDS011;49099;28.428;-16.488;2022-12-31T13:20:52;10.10;;;2.38;;
63008;SDS011;49099;28.428;-16.488;2022-12-31T13:26:24;15.88;;;2.67;;
63008;SDS011;49099;28.428;-16.488;2022-12-31T13:28:57;14.20;;;2.47;;
63008;SDS011;49099;28.428;-16.488;2022-12-31T13:31:32;21.63;;;3.08;;
63008;SDS011;49099;28.428;-16.488;2022-12-31T13:34:06;22.55;;;3.33;;
63008;SDS011;49099;28.428;-16.488;2022-12-31T13:36:42;23.98;;;3.13;;
63008;SDS011;49099;28.428;-16.488;2022-12-31T13:39:35;20.00;;;3.65;;
63008;SDS011;49099;28.428;-16.488;2022-12-31T13:44:55;18.70;;;3.80;;
63008;SDS011;49099;28.428;-16.488;2022-12-31T13:50:54;14.55;;;2.63;;
63008;SDS011;49099;28.428;-16.488;2022-12-31T13:53:39;25.67;;;3.45;;
63008;SDS011;49099;28.428;-16.488;2022-12-31T13:56:16;23.52;;;3.50;;
63008;SDS011;49099;28.428;-16.488;2022-12-31T13:58:51;20.17;;;3.15;;
63008;SDS011;49099;28.428;-16.488;2022-12-31T14:01:28;18.73;;;3.22;;
63008;SDS011;49099;28.428;-16.488;2022-12-31T14:07:04;17.23;;;3.75;;
63008;SDS011;49099;28.428;-16.488;2022-12-31T14:09:36;22.23;;;3.40;;
63008;SDS011;49099;28.428;-16.488;2022-12-31T14:12:17;21.63;;;3.60;;
63008;SDS011;49099;28.428;-16.488;2022-12-31T14:15:09;17.42;;;3.15;;
63008;SDS011;49099;28.428;-16.488;2022-12-31T14:20:39;22.52;;;3.28;;
63008;SDS011;49099;28.428;-16.488;2022-12-31T14:28:31;26.80;;;3.50;;
63008;SDS011;49099;28.428;-16.488;2022-12-31T14:50:59;26.90;;;4.30;;
63008;SDS011;49099;28.428;-16.488;2022-12-31T14:53:28;30.20;;;4.15;;
63008;SDS011;49099;28.428;-16.488;2022-12-31T14:56:00;21.80;;;4.00;;
63008;SDS011;49099;28.428;-16.488;2022-12-31T14:58:39;29.13;;;4.20;;
63008;SDS011;49099;28.428;-16.488;2022-12-31T15:03:41;30.95;;;3.92;;
63008;SDS011;49099;28.428;-16.488;2022-12-31T15:09:31;24.70;;;3.53;;
63008;SDS011;49099;28.428;-16.488;2022-12-31T15:20:37;36.75;;;4.25;;
63008;SDS011;49099;28.428;-16.488;2022-12-31T15:23:23;35.22;;;4.20;;
63008;SDS011;49099;28.428;-16.488;2022-12-31T15:25:57;29.77;;;4.78;;
63008;SDS011;49099;28.428;-16.488;2022-12-31T15:30:57;37.55;;;4.97;;
63008;SDS011;49099;28.428;-16.488;2022-12-31T15:33:35;34.65;;;4.57;;
63008;SDS011;49099;28.428;-16.488;2022-12-31T15:36:11;34.20;;;5.05;;
63008;SDS011;49099;28.428;-16.488;2022-12-31T15:38:41;32.58;;;4.47;;
63008;SDS011;49099;28.428;-16.488;2022-12-31T15:46:30;24.85;;;4.18;;
63008;SDS011;49099;28.428;-16.488;2022-12-31T15:49:03;27.92;;;4.55;;
63008;SDS011;49099;28.428;-16.488;2022-12-31T15:51:49;37.33;;;4.82;;
63008;SDS011;49099;28.428;-16.488;2022-12-31T15:56:53;31.92;;;4.25;;
63008;SDS011;49099;28.428;-16.488;2022-12-31T15:59:20;24.45;;;4.03;;
63008;SDS011;49099;28.428;-16.488;2022-12-31T16:01:48;33.22;;;4.50;;
63008;SDS011;49099;28.428;-16.488;2022-12-31T16:04:20;22.58;;;4.10;;
63008;SDS011;49099;28.428;-16.488;2022-12-31T16:06:50;27.42;;;4.75;;
63008;SDS011;49099;28.428;-16.488;2022-12-31T16:09:22;32.60;;;4.72;;
63008;SDS011;49099;28.428;-16.488;2022-12-31T16:11:50;26.23;;;4.22;;
63008;SDS011;49099;28.428;-16.488;2022-12-31T16:14:22;31.55;;;4.40;;
63008;SDS011;49099;28.428;-16.488;2022-12-31T16:16:55;34.60;;;4.85;;
63008;SDS011;49099;28.428;-16.488;2022-12-31T16:19:28;25.98;;;4.78;;
63008;SDS011;49099;28.428;-16.488;2022-12-31T16:21:56;22.52;;;4.57;;
63008;SDS011;49099;28.428;-16.488;2022-12-31T16:24:30;32.92;;;4.88;;
63008;SDS011;49099;28.428;-16.488;2022-12-31T16:27:06;37.08;;;5.20;;
63008;SDS011;49099;28.428;-16.488;2022-12-31T16:29:35;25.77;;;4.50;;
63008;SDS011;49099;28.428;-16.488;2022-12-31T16:32:09;35.90;;;5.30;;
63008;SDS011;49099;28.428;-16.488;2022-12-31T16:34:40;25.33;;;4.63;;
63008;SDS011;49099;28.428;-16.488;2022-12-31T16:37:17;27.00;;;4.60;;
63008;SDS011;49099;28.428;-16.488;2022-12-31T16:40:28;30.45;;;5.13;;
63008;SDS011;49099;28.428;-16.488;2022-12-31T16:42:44;29.83;;;4.28;;
63008;SDS011;49099;28.428;-16.488;2022-12-31T16:45:18;41.88;;;4.78;;
63008;SDS011;49099;28.428;-16.488;2022-12-31T16:47:55;31.95;;;4.85;;
63008;SDS011;49099;28.428;-16.488;2022-12-31T16:50:49;33.45;;;5.40;;
63008;SDS011;49099;28.428;-16.488;2022-12-31T16:53:20;31.48;;;5.38;;
63008;SDS011;49099;28.428;-16.488;2022-12-31T16:55:55;23.10;;;4.53;;
63008;SDS011;49099;28.428;-16.488;2022-12-31T16:58:28;30.90;;;4.70;;
63008;SDS011;49099;28.428;-16.488;2022-12-31T17:01:19;21.38;;;3.92;;
63008;SDS011;49099;28.428;-16.488;2022-12-31T17:03:49;33.55;;;5.15;;
63008;SDS011;49099;28.428;-16.488;2022-12-31T17:06:20;26.33;;;4.18;;
63008;SDS011;49099;28.428;-16.488;2022-12-31T17:11:27;31.63;;;4.68;;
63008;SDS011;49099;28.428;-16.488;2022-12-31T17:14:05;24.83;;;3.90;;
63008;SDS011;49099;28.428;-16.488;2022-12-31T17:21:58;39.72;;;5.50;;
63008;SDS011;49099;28.428;-16.488;2022-12-31T17:24:26;38.50;;;6.90;;
63008;SDS011;49099;28.428;-16.488;2022-12-31T17:26:53;22.00;;;4.38;;
63008;SDS011;49099;28.428;-16.488;2022-12-31T17:29:27;27.35;;;4.72;;
63008;SDS011;49099;28.428;-16.488;2022-12-31T17:34:36;26.65;;;4.80;;
63008;SDS011;49099;28.428;-16.488;2022-12-31T17:37:33;30.05;;;4.70;;
63008;SDS011;49099;28.428;-16.488;2022-12-31T17:40:00;22.17;;;4.63;;
63008;SDS011;49099;28.428;-16.488;2022-12-31T17:42:47;28.00;;;4.43;;
63008;SDS011;49099;28.428;-16.488;2022-12-31T17:45:17;26.90;;;4.63;;
63008;SDS011;49099;28.428;-16.488;2022-12-31T17:47:47;25.15;;;4.22;;
63008;SDS011;49099;28.428;-16.488;2022-12-31T17:50:24;38.65;;;4.50;;
63008;SDS011;49099;28.428;-16.488;2022-12-31T17:53:08;28.23;;;4.53;;
63008;SDS011;49099;28.428;-16.488;2022-12-31T17:55:37;30.00;;;5.28;;
63008;SDS011;49099;28.428;-16.488;2022-12-31T17:58:11;24.73;;;4.38;;
63008;SDS011;49099;28.428;-16.488;2022-12-31T18:00:43;28.95;;;4.68;;
63008;SDS011;49099;28.428;-16.488;2022-12-31T18:03:10;28.52;;;4.63;;
63008;SDS011;49099;28.428;-16.488;2022-12-31T18:05:37;27.77;;;4.85;;
63008;SDS011;49099;28.428;-16.488;2022-12-31T18:08:04;28.13;;;4.40;;
63008;SDS011;49099;28.428;-16.488;2022-12-31T18:10:34;28.65;;;4.30;;
63008;SDS011;49099;28.428;-16.488;2022-12-31T18:13:04;31.80;;;4.63;;
63008;SDS011;49099;28.428;-16.488;2022-12-31T18:15:33;22.58;;;4.00;;
63008;SDS011;49099;28.428;-16.488;2022-12-31T18:18:00;37.05;;;4.75;;
63008;SDS011;49099;28.428;-16.488;2022-12-31T18:20:28;31.02;;;4.90;;
63008;SDS011;49099;28.428;-16.488;2022-12-31T18:22:55;34.50;;;5.03;;
63008;SDS011;49099;28.428;-16.488;2022-12-31T18:25:22;27.95;;;5.15;;
63008;SDS011;49099;28.428;-16.488;2022-12-31T18:27:50;36.40;;;5.38;;
63008;SDS011;49099;28.428;-16.488;2022-12-31T18:30:17;29.33;;;5.03;;
63008;SDS011;49099;28.428;-16.488;2022-12-31T18:32:45;29.25;;;4.88;;
63008;SDS011;49099;28.428;-16.488;2022-12-31T18:35:14;24.70;;;4.35;;
63008;SDS011;49099;28.428;-16.488;2022-12-31T18:38:02;23.80;;;4.60;;
63008;SDS011;49099;28.428;-16.488;2022-12-31T18:40:31;31.25;;;5.28;;
63008;SDS011;49099;28.428;-16.488;2022-12-31T18:42:59;24.80;;;5.28;;
63008;SDS011;49099;28.428;-16.488;2022-12-31T18:45:30;31.40;;;5.20;;
63008;SDS011;49099;28.428;-16.488;2022-12-31T18:47:57;28.10;;;4.72;;
63008;SDS011;49099;28.428;-16.488;2022-12-31T18:50:24;31.85;;;5.28;;
63008;SDS011;49099;28.428;-16.488;2022-12-31T18:52:51;31.98;;;5.53;;
63008;SDS011;49099;28.428;-16.488;2022-12-31T18:55:37;27.25;;;5.50;;
63008;SDS011;49099;28.428;-16.488;2022-12-31T18:58:08;30.38;;;5.25;;
63008;SDS011;49099;28.428;-16.488;2022-12-31T19:00:36;25.23;;;5.45;;
63008;SDS011;49099;28.428;-16.488;2022-12-31T19:03:03;35.60;;;7.07;;
63008;SDS011;49099;28.428;-16.488;2022-12-31T19:05:32;28.05;;;5.78;;
63008;SDS011;49099;28.428;-16.488;2022-12-31T19:08:03;29.35;;;6.75;;
63008;SDS011;49099;28.428;-16.488;2022-12-31T19:10:30;31.73;;;5.30;;
63008;SDS011;49099;28.428;-16.488;2022-12-31T19:12:57;24.75;;;5.82;;